createdAt,value
2022-08-19T00:02:20.470Z,95184.31
2022-08-19T00:07:26.707Z,95205.63
2022-08-19T00:12:29.909Z,95199.53
2022-08-19T00:17:33.281Z,95199.19
2022-08-19T00:22:36.682Z,95170.22
2022-08-19T00:27:40.395Z,95155.38
2022-08-19T00:32:44.521Z,95132.78
2022-08-19T00:37:47.731Z,95144.22
2022-08-19T00:42:54.691Z,95153.47
2022-08-19T00:47:57.955Z,95148.63
2022-08-19T00:53:01.147Z,95137.28
2022-08-19T00:58:04.808Z,95111.22
2022-08-19T01:03:08.066Z,95131.59
2022-08-19T01:08:11.221Z,95132.34
2022-08-19T01:13:14.954Z,95124.75
2022-08-19T01:18:18.143Z,95114.78
2022-08-19T01:23:21.328Z,95122.69
2022-08-19T01:28:33.858Z,95131.72
2022-08-19T01:33:43.448Z,95138.84
2022-08-19T01:38:47.184Z,95156.78
2022-08-19T01:44:10.051Z,95162.91
2022-08-19T01:49:15.062Z,95166.28
2022-08-19T01:54:27.149Z,95165.28
2022-08-19T01:59:31.183Z,95179.03
2022-08-19T02:04:34.884Z,95155.94
2022-08-19T02:09:38.095Z,95165.31
2022-08-19T02:14:41.326Z,95164.22
2022-08-19T02:19:44.549Z,95173.63
2022-08-19T02:24:49.069Z,95175.44
2022-08-19T02:29:52.452Z,95189.28
2022-08-19T02:34:55.770Z,95189.41
2022-08-19T02:39:59.019Z,95186.34
2022-08-19T02:45:02.221Z,95163.66
2022-08-19T02:50:05.461Z,95129.13
2022-08-19T02:55:08.641Z,95113.81
2022-08-19T03:00:13.141Z,95117.91
2022-08-19T03:05:16.356Z,95108.25
2022-08-19T03:10:19.696Z,95120.09
2022-08-19T03:15:22.867Z,95142.22
2022-08-19T03:20:26.905Z,95130.94
2022-08-19T03:25:30.312Z,95144.41
2022-08-19T03:30:33.816Z,95169.66
2022-08-19T03:35:37.772Z,95157.03
2022-08-19T03:40:40.950Z,95157.88
2022-08-19T03:45:44.305Z,95152.34
2022-08-19T03:50:47.497Z,95154.38
2022-08-19T03:55:50.773Z,95158.13
2022-08-19T04:00:54.093Z,95156.97
2022-08-19T04:05:57.378Z,95145.41
2022-08-19T04:11:00.589Z,95155.47
2022-08-19T04:16:04.454Z,95147.44
2022-08-19T04:21:08.105Z,95144.00
2022-08-19T04:26:11.318Z,95140.19
2022-08-19T04:31:16.333Z,95156.53
2022-08-19T04:36:21.470Z,95170.28
2022-08-19T04:41:42.501Z,95177.09
2022-08-19T04:46:51.314Z,95181.06
2022-08-19T04:51:55.204Z,95187.94
2022-08-19T04:56:58.915Z,95190.19
2022-08-19T05:02:02.152Z,95202.69
2022-08-19T05:07:05.792Z,95194.88
2022-08-19T05:12:09.031Z,95214.81
2022-08-19T05:17:27.076Z,95206.44
2022-08-19T05:22:35.629Z,95198.16
2022-08-19T05:27:38.850Z,95206.56
2022-08-19T05:32:42.068Z,95193.59
2022-08-19T05:37:45.276Z,95188.84
2022-08-19T05:42:55.099Z,95190.09
2022-08-19T05:47:59.309Z,95183.63
2022-08-19T05:53:02.558Z,95189.41
2022-08-19T05:58:08.508Z,95192.53
2022-08-19T06:03:12.766Z,95187.13
2022-08-19T06:08:19.336Z,95192.13
2022-08-19T06:13:23.791Z,95185.88
2022-08-19T06:18:27.425Z,95197.16
2022-08-19T06:23:30.645Z,95200.44
2022-08-19T06:28:34.543Z,95199.47
2022-08-19T06:33:38.484Z,95193.69
2022-08-19T06:38:42.141Z,95198.78
2022-08-19T06:43:50.118Z,95202.31
2022-08-19T06:48:57.342Z,95197.66
2022-08-19T06:54:00.641Z,95209.38
2022-08-19T06:59:04.228Z,95202.47
2022-08-19T07:04:07.470Z,95195.78
2022-08-19T07:09:18.610Z,95200.38
2022-08-19T07:14:23.080Z,95199.47
2022-08-19T07:19:27.176Z,95193.16
2022-08-19T07:24:30.436Z,95183.69
2022-08-19T07:29:37.342Z,95166.38
2022-08-19T07:34:41.164Z,95160.22
2022-08-19T07:39:46.693Z,95160.81
2022-08-19T07:44:50.755Z,95159.19
2022-08-19T07:49:54.190Z,95171.31
2022-08-19T07:54:58.214Z,95177.00
2022-08-19T08:00:02.417Z,95174.91
2022-08-19T08:05:35.719Z,95186.66
2022-08-19T08:10:38.980Z,95183.31
2022-08-19T08:15:43.169Z,95181.31
2022-08-19T08:20:46.978Z,95198.38
2022-08-19T08:25:50.610Z,95195.09
2022-08-19T08:30:54.504Z,95193.81
2022-08-19T08:35:58.239Z,95199.06
2022-08-19T08:41:07.555Z,95208.56
2022-08-19T08:46:13.369Z,95213.66
2022-08-19T08:51:20.336Z,95224.47
2022-08-19T08:56:24.073Z,95227.19
2022-08-19T09:01:30.761Z,95224.69
2022-08-19T09:06:34.354Z,95226.97
2022-08-19T09:11:42.781Z,95231.50
2022-08-19T09:16:49.471Z,95231.97
2022-08-19T09:21:52.761Z,95232.19
2022-08-19T09:26:56.124Z,95239.88
2022-08-19T09:32:01.024Z,95234.59
2022-08-19T09:37:04.507Z,95244.47
2022-08-19T09:42:16.459Z,95238.53
2022-08-19T09:47:37.169Z,95217.31
2022-08-19T09:52:57.455Z,95222.19
2022-08-19T09:58:01.299Z,95220.63
2022-08-19T10:03:04.464Z,95225.84
2022-08-19T10:08:13.674Z,95240.34
2022-08-19T10:13:17.297Z,95245.47
2022-08-19T10:18:20.573Z,95243.38
2022-08-19T10:23:23.809Z,95218.91
2022-08-19T10:28:27.037Z,95232.66
2022-08-19T10:33:53.045Z,95229.97
2022-08-19T10:38:58.412Z,95217.50
2022-08-19T10:44:04.412Z,95215.50
2022-08-19T10:49:08.194Z,95217.91
2022-08-19T10:54:12.458Z,95209.81
2022-08-19T10:59:16.184Z,95211.63
2022-08-19T11:04:19.594Z,95214.16
2022-08-19T11:09:33.137Z,95208.97
2022-08-19T11:14:36.578Z,95191.81
2022-08-19T11:19:39.333Z,95191.38
2022-08-19T11:24:42.061Z,95189.13
2022-08-19T11:29:45.175Z,95190.66
2022-08-19T11:34:48.035Z,95193.22
2022-08-19T11:39:53.411Z,95202.81
2022-08-19T11:44:57.825Z,95191.63
2022-08-19T11:50:01.027Z,95194.38
2022-08-19T11:55:04.221Z,95188.72
2022-08-19T12:00:08.404Z,95196.22
2022-08-19T12:05:12.873Z,95217.66
2022-08-19T12:10:18.489Z,95207.75
2022-08-19T12:15:22.726Z,95208.38
2022-08-19T12:20:25.912Z,95210.66
2022-08-19T12:25:29.116Z,95227.25
2022-08-19T12:30:32.312Z,95233.91
2022-08-19T12:35:36.233Z,95223.50
2022-08-19T12:40:41.155Z,95215.44
2022-08-19T12:45:44.605Z,95222.00
2022-08-19T12:50:50.680Z,95219.94
2022-08-19T12:55:53.909Z,95224.75
2022-08-19T13:00:57.199Z,95225.72
2022-08-19T13:06:00.475Z,95235.41
2022-08-19T13:11:03.693Z,95230.94
2022-08-19T13:16:07.761Z,95224.72
2022-08-19T13:21:11.135Z,95227.78
2022-08-19T13:26:14.423Z,95219.72
2022-08-19T13:31:35.297Z,95210.38
2022-08-19T13:36:38.495Z,95208.56
2022-08-19T13:41:42.075Z,95208.69
2022-08-19T13:46:46.094Z,95218.06
2022-08-19T13:51:49.365Z,95219.47
2022-08-19T13:56:53.288Z,95214.09
2022-08-19T14:01:56.774Z,95217.03
2022-08-19T14:06:59.996Z,95217.53
2022-08-19T14:12:03.232Z,95218.72
2022-08-19T14:17:06.732Z,95216.97
2022-08-19T14:22:10.019Z,95216.53
2022-08-19T14:27:15.695Z,95223.22
2022-08-19T14:32:19.121Z,95231.59
2022-08-19T14:37:22.585Z,95242.69
2022-08-19T14:42:28.228Z,95242.31
2022-08-19T14:47:31.401Z,95237.06
2022-08-19T14:52:36.350Z,95243.97
2022-08-19T14:57:39.581Z,95246.94
2022-08-19T15:02:42.857Z,95250.00
2022-08-19T15:07:46.070Z,95247.81
2022-08-19T15:12:51.718Z,95245.72
2022-08-19T15:17:57.547Z,95257.66
2022-08-19T15:23:01.177Z,95247.13
2022-08-19T15:28:04.524Z,95247.53
2022-08-19T15:33:07.734Z,95250.97
2022-08-19T15:38:11.684Z,95269.91
2022-08-19T15:43:15.138Z,95278.81
2022-08-19T15:48:18.333Z,95284.66
2022-08-19T15:53:21.566Z,95287.34
2022-08-19T15:58:42.185Z,95299.81
2022-08-19T16:04:03.287Z,95291.50
2022-08-19T16:09:07.449Z,95295.13
2022-08-19T16:14:10.676Z,95294.13
2022-08-19T16:19:15.728Z,95294.34
2022-08-19T16:24:18.990Z,95296.50
2022-08-19T16:29:33.545Z,95305.91
2022-08-19T16:34:39.140Z,95309.06
2022-08-19T16:39:43.751Z,95313.56
2022-08-19T16:44:47.981Z,95315.03
2022-08-19T16:49:53.027Z,95321.94
2022-08-19T16:54:58.541Z,95329.59
2022-08-19T17:00:01.867Z,95327.66
2022-08-19T17:05:05.104Z,95341.31
2022-08-19T17:10:12.758Z,95341.31
2022-08-19T17:15:15.977Z,95357.31
2022-08-19T17:20:19.325Z,95357.19
2022-08-19T17:25:23.125Z,95366.66
2022-08-19T17:30:26.382Z,95372.78
2022-08-19T17:35:30.027Z,95372.56
2022-08-19T17:40:33.394Z,95379.97
2022-08-19T17:45:37.024Z,95383.69
2022-08-19T17:50:40.462Z,95398.13
2022-08-19T17:55:43.680Z,95400.25
2022-08-19T18:00:53.650Z,95403.84
2022-08-19T18:05:57.278Z,95409.56
2022-08-19T18:11:00.612Z,95420.63
2022-08-19T18:16:04.022Z,95412.72
2022-08-19T18:21:07.432Z,95423.13
2022-08-19T18:26:11.175Z,95419.28
2022-08-19T18:31:15.276Z,95425.84
2022-08-19T18:36:32.028Z,95416.44
2022-08-19T18:41:59.592Z,95422.75
2022-08-19T18:47:20.503Z,95434.09
2022-08-19T18:52:26.906Z,95444.31
2022-08-19T18:57:30.162Z,95445.50
2022-08-19T19:02:33.409Z,95451.41
2022-08-19T19:07:36.619Z,95445.28
2022-08-19T19:12:40.098Z,95446.41
2022-08-19T19:17:45.131Z,95456.25
2022-08-19T19:22:48.579Z,95460.53
2022-08-19T19:27:51.772Z,95452.59
2022-08-19T19:32:56.276Z,95462.97
2022-08-19T19:37:59.719Z,95472.44
2022-08-19T19:43:04.790Z,95476.28
2022-08-19T19:48:08.437Z,95475.84
2022-08-19T19:53:15.108Z,95481.75
2022-08-19T19:58:28.414Z,95471.03
2022-08-19T20:03:32.465Z,95493.50
2022-08-19T20:08:55.698Z,95503.28
2022-08-19T20:14:01.155Z,95514.63
2022-08-19T20:19:04.500Z,95514.44
2022-08-19T20:24:08.994Z,95531.88
2022-08-19T20:29:38.996Z,95531.22
2022-08-19T20:34:37.379Z,95528.34
2022-08-19T20:39:40.717Z,95529.81
2022-08-19T20:44:43.978Z,95530.59
2022-08-19T20:49:47.433Z,95531.22
2022-08-19T20:54:50.847Z,95536.66
2022-08-19T20:59:58.332Z,95531.88
2022-08-19T21:05:01.655Z,95541.13
2022-08-19T21:10:05.424Z,95540.03
2022-08-19T21:15:12.165Z,95543.88
2022-08-19T21:20:15.557Z,95545.94
2022-08-19T21:25:18.832Z,95546.44
2022-08-19T21:30:23.178Z,95540.84
2022-08-19T21:35:26.513Z,95551.06
2022-08-19T21:40:29.826Z,95546.75
2022-08-19T21:45:33.160Z,95546.59
2022-08-19T21:50:36.480Z,95552.50
2022-08-19T21:55:39.694Z,95554.91
2022-08-19T22:00:43.133Z,95557.16
2022-08-19T22:05:46.455Z,95550.59
2022-08-19T22:10:50.249Z,95548.81
2022-08-19T22:15:55.165Z,95549.63
2022-08-19T22:20:58.469Z,95541.63
2022-08-19T22:26:01.842Z,95530.13
2022-08-19T22:31:06.006Z,95521.66
2022-08-19T22:36:09.732Z,95534.59
2022-08-19T22:41:12.940Z,95527.25
2022-08-19T22:46:17.626Z,95527.25
2022-08-19T22:51:38.426Z,95532.34
2022-08-19T22:56:43.433Z,95528.53
2022-08-19T23:01:47.510Z,95526.31
2022-08-19T23:06:53.008Z,95532.03
2022-08-19T23:11:56.292Z,95530.31
2022-08-19T23:16:59.996Z,95534.78
2022-08-19T23:22:04.195Z,95539.22
2022-08-19T23:27:25.112Z,95539.72
2022-08-19T23:32:28.437Z,95524.56
2022-08-19T23:37:31.788Z,95531.59
2022-08-19T23:42:35.115Z,95525.16
2022-08-19T23:47:41.377Z,95513.50
2022-08-19T23:52:44.768Z,95512.41
2022-08-19T23:57:48.069Z,95514.31
